sensor_id;sensor_type;location;lat;lon;timestamp;temperature;humidity
49379;DHT22;35254;47.990;-1.608;2022-12-15T00:01:56;19.50;45.20
49379;DHT22;35254;47.990;-1.608;2022-12-15T00:04:40;19.50;45.00
49379;DHT22;35254;47.990;-1.608;2022-12-15T00:07:24;19.50;45.00
49379;DHT22;35254;47.990;-1.608;2022-12-15T00:10:08;19.50;45.00
49379;DHT22;35254;47.990;-1.608;2022-12-15T00:12:53;19.40;45.10
49379;DHT22;35254;47.990;-1.608;2022-12-15T00:15:37;19.50;45.30
49379;DHT22;35254;47.990;-1.608;2022-12-15T00:18:21;19.50;45.20
49379;DHT22;35254;47.990;-1.608;2022-12-15T00:21:05;19.50;45.20
49379;DHT22;35254;47.990;-1.608;2022-12-15T00:23:49;19.40;45.20
49379;DHT22;35254;47.990;-1.608;2022-12-15T00:26:33;19.50;45.10
49379;DHT22;35254;47.990;-1.608;2022-12-15T00:29:17;19.50;45.20
49379;DHT22;35254;47.990;-1.608;2022-12-15T00:32:01;19.50;45.10
49379;DHT22;35254;47.990;-1.608;2022-12-15T00:34:45;19.50;45.10
49379;DHT22;35254;47.990;-1.608;2022-12-15T00:37:29;19.50;45.10
49379;DHT22;35254;47.990;-1.608;2022-12-15T00:40:13;19.50;44.90
49379;DHT22;35254;47.990;-1.608;2022-12-15T00:42:39;19.50;44.90
49379;DHT22;35254;47.990;-1.608;2022-12-15T00:45:05;19.50;44.80
49379;DHT22;35254;47.990;-1.608;2022-12-15T00:47:31;19.50;44.80
49379;DHT22;35254;47.990;-1.608;2022-12-15T00:49:57;19.50;44.80
49379;DHT22;35254;47.990;-1.608;2022-12-15T00:52:43;19.50;44.70
49379;DHT22;35254;47.990;-1.608;2022-12-15T00:55:27;19.50;44.70
49379;DHT22;35254;47.990;-1.608;2022-12-15T00:58:11;19.50;44.70
49379;DHT22;35254;47.990;-1.608;2022-12-15T01:00:55;19.50;44.70
49379;DHT22;35254;47.990;-1.608;2022-12-15T01:03:40;19.50;44.80
49379;DHT22;35254;47.990;-1.608;2022-12-15T01:06:24;19.40;44.70
49379;DHT22;35254;47.990;-1.608;2022-12-15T01:09:11;19.40;44.90
49379;DHT22;35254;47.990;-1.608;2022-12-15T01:11:56;19.50;44.90
49379;DHT22;35254;47.990;-1.608;2022-12-15T01:14:40;19.40;44.80
49379;DHT22;35254;47.990;-1.608;2022-12-15T01:17:24;19.50;44.80
49379;DHT22;35254;47.990;-1.608;2022-12-15T01:20:09;19.40;44.80
49379;DHT22;35254;47.990;-1.608;2022-12-15T01:22:38;19.40;44.80
49379;DHT22;35254;47.990;-1.608;2022-12-15T01:25:05;19.40;44.80
49379;DHT22;35254;47.990;-1.608;2022-12-15T01:27:32;19.50;44.80
49379;DHT22;35254;47.990;-1.608;2022-12-15T01:29:57;19.40;44.80
49379;DHT22;35254;47.990;-1.608;2022-12-15T01:32:23;19.40;44.80
49379;DHT22;35254;47.990;-1.608;2022-12-15T01:34:49;19.50;44.80
49379;DHT22;35254;47.990;-1.608;2022-12-15T01:37:15;19.40;44.70
49379;DHT22;35254;47.990;-1.608;2022-12-15T01:39:41;19.40;44.90
49379;DHT22;35254;47.990;-1.608;2022-12-15T01:42:25;19.40;44.80
49379;DHT22;35254;47.990;-1.608;2022-12-15T01:44:52;19.40;44.70
49379;DHT22;35254;47.990;-1.608;2022-12-15T01:47:21;19.40;44.70
49379;DHT22;35254;47.990;-1.608;2022-12-15T01:49:48;19.40;44.70
49379;DHT22;35254;47.990;-1.608;2022-12-15T01:52:15;19.40;44.70
49379;DHT22;35254;47.990;-1.608;2022-12-15T01:54:53;19.30;44.80
49379;DHT22;35254;47.990;-1.608;2022-12-15T01:57:24;19.30;44.70
49379;DHT22;35254;47.990;-1.608;2022-12-15T01:59:54;19.30;44.70
49379;DHT22;35254;47.990;-1.608;2022-12-15T02:02:26;19.30;44.70
49379;DHT22;35254;47.990;-1.608;2022-12-15T02:04:54;19.30;44.70
49379;DHT22;35254;47.990;-1.608;2022-12-15T02:07:21;19.30;44.60
49379;DHT22;35254;47.990;-1.608;2022-12-15T02:09:48;19.30;44.60
49379;DHT22;35254;47.990;-1.608;2022-12-15T02:15:16;19.30;44.70
49379;DHT22;35254;47.990;-1.608;2022-12-15T02:32:13;19.30;44.60
49379;DHT22;35254;47.990;-1.608;2022-12-15T02:34:43;19.20;44.60
49379;DHT22;35254;47.990;-1.608;2022-12-15T02:37:11;19.20;44.60
49379;DHT22;35254;47.990;-1.608;2022-12-15T02:39:37;19.30;44.60
49379;DHT22;35254;47.990;-1.608;2022-12-15T02:42:03;19.30;44.40
49379;DHT22;35254;47.990;-1.608;2022-12-15T02:44:47;19.30;44.40
49379;DHT22;35254;47.990;-1.608;2022-12-15T02:47:30;19.20;44.30
49379;DHT22;35254;47.990;-1.608;2022-12-15T02:55:17;19.30;44.20
49379;DHT22;35254;47.990;-1.608;2022-12-15T02:58:07;19.30;44.20
49379;DHT22;35254;47.990;-1.608;2022-12-15T03:00:40;19.30;44.10
49379;DHT22;35254;47.990;-1.608;2022-12-15T03:03:08;19.20;44.00
49379;DHT22;35254;47.990;-1.608;2022-12-15T03:05:34;19.20;44.10
49379;DHT22;35254;47.990;-1.608;2022-12-15T03:08:00;19.20;44.10
49379;DHT22;35254;47.990;-1.608;2022-12-15T03:10:26;19.30;44.20
49379;DHT22;35254;47.990;-1.608;2022-12-15T03:12:51;19.30;44.20
49379;DHT22;35254;47.990;-1.608;2022-12-15T03:15:19;19.30;44.20
49379;DHT22;35254;47.990;-1.608;2022-12-15T03:17:44;19.30;44.00
49379;DHT22;35254;47.990;-1.608;2022-12-15T03:20:10;19.30;44.00
49379;DHT22;35254;47.990;-1.608;2022-12-15T03:22:36;19.30;44.00
49379;DHT22;35254;47.990;-1.608;2022-12-15T03:25:03;19.30;43.80
49379;DHT22;35254;47.990;-1.608;2022-12-15T03:27:29;19.20;43.80
49379;DHT22;35254;47.990;-1.608;2022-12-15T03:29:55;19.30;43.90
49379;DHT22;35254;47.990;-1.608;2022-12-15T03:32:20;19.20;43.80
49379;DHT22;35254;47.990;-1.608;2022-12-15T03:34:46;19.30;43.50
49379;DHT22;35254;47.990;-1.608;2022-12-15T03:37:12;19.20;43.50
49379;DHT22;35254;47.990;-1.608;2022-12-15T03:39:37;19.20;43.60
49379;DHT22;35254;47.990;-1.608;2022-12-15T03:42:03;19.20;43.40
49379;DHT22;35254;47.990;-1.608;2022-12-15T03:44:29;19.20;43.50
49379;DHT22;35254;47.990;-1.608;2022-12-15T03:46:54;19.20;43.40
49379;DHT22;35254;47.990;-1.608;2022-12-15T03:49:20;19.20;43.40
49379;DHT22;35254;47.990;-1.608;2022-12-15T03:51:46;19.20;43.40
49379;DHT22;35254;47.990;-1.608;2022-12-15T03:54:12;19.20;43.40
49379;DHT22;35254;47.990;-1.608;2022-12-15T03:56:38;19.20;43.30
49379;DHT22;35254;47.990;-1.608;2022-12-15T03:59:04;19.20;43.30
49379;DHT22;35254;47.990;-1.608;2022-12-15T04:01:32;19.20;43.30
49379;DHT22;35254;47.990;-1.608;2022-12-15T04:03:58;19.20;43.20
49379;DHT22;35254;47.990;-1.608;2022-12-15T04:06:24;19.20;43.20
49379;DHT22;35254;47.990;-1.608;2022-12-15T04:08:50;19.20;43.30
49379;DHT22;35254;47.990;-1.608;2022-12-15T04:11:16;19.20;43.20
49379;DHT22;35254;47.990;-1.608;2022-12-15T04:13:43;19.20;43.20
49379;DHT22;35254;47.990;-1.608;2022-12-15T04:16:09;19.20;43.20
49379;DHT22;35254;47.990;-1.608;2022-12-15T04:18:34;19.20;43.10
49379;DHT22;35254;47.990;-1.608;2022-12-15T04:21:00;19.20;43.10
49379;DHT22;35254;47.990;-1.608;2022-12-15T04:23:26;19.20;43.00
49379;DHT22;35254;47.990;-1.608;2022-12-15T04:25:51;19.20;43.10
49379;DHT22;35254;47.990;-1.608;2022-12-15T04:28:36;19.20;43.00
49379;DHT22;35254;47.990;-1.608;2022-12-15T04:31:27;19.20;43.00
49379;DHT22;35254;47.990;-1.608;2022-12-15T04:34:19;19.20;43.00
49379;DHT22;35254;47.990;-1.608;2022-12-15T04:37:09;19.20;43.00
49379;DHT22;35254;47.990;-1.608;2022-12-15T04:39:54;19.20;42.90
49379;DHT22;35254;47.990;-1.608;2022-12-15T04:42:42;19.20;43.00
49379;DHT22;35254;47.990;-1.608;2022-12-15T04:45:28;19.20;42.90
49379;DHT22;35254;47.990;-1.608;2022-12-15T04:48:12;19.20;42.90
49379;DHT22;35254;47.990;-1.608;2022-12-15T04:50:56;19.10;42.90
49379;DHT22;35254;47.990;-1.608;2022-12-15T04:53:42;19.10;42.80
49379;DHT22;35254;47.990;-1.608;2022-12-15T04:56:27;19.10;42.40
49379;DHT22;35254;47.990;-1.608;2022-12-15T04:59:11;19.10;42.00
49379;DHT22;35254;47.990;-1.608;2022-12-15T05:01:55;19.10;41.80
49379;DHT22;35254;47.990;-1.608;2022-12-15T05:04:39;19.10;41.60
49379;DHT22;35254;47.990;-1.608;2022-12-15T05:07:24;19.00;41.70
49379;DHT22;35254;47.990;-1.608;2022-12-15T05:10:09;19.00;41.60
49379;DHT22;35254;47.990;-1.608;2022-12-15T05:12:54;19.00;41.50
49379;DHT22;35254;47.990;-1.608;2022-12-15T05:15:38;19.10;41.40
49379;DHT22;35254;47.990;-1.608;2022-12-15T05:18:22;19.10;41.40
49379;DHT22;35254;47.990;-1.608;2022-12-15T05:21:06;19.10;41.30
49379;DHT22;35254;47.990;-1.608;2022-12-15T05:23:51;19.10;41.00
49379;DHT22;35254;47.990;-1.608;2022-12-15T05:26:35;18.90;40.90
49379;DHT22;35254;47.990;-1.608;2022-12-15T05:29:20;18.80;41.10
49379;DHT22;35254;47.990;-1.608;2022-12-15T05:32:04;18.80;41.40
49379;DHT22;35254;47.990;-1.608;2022-12-15T05:34:32;18.70;41.60
49379;DHT22;35254;47.990;-1.608;2022-12-15T05:36:59;18.60;41.80
49379;DHT22;35254;47.990;-1.608;2022-12-15T05:39:26;18.60;42.00
49379;DHT22;35254;47.990;-1.608;2022-12-15T05:41:52;18.50;42.10
49379;DHT22;35254;47.990;-1.608;2022-12-15T05:44:19;18.50;42.00
49379;DHT22;35254;47.990;-1.608;2022-12-15T05:46:45;18.50;42.20
49379;DHT22;35254;47.990;-1.608;2022-12-15T05:49:13;18.40;42.20
49379;DHT22;35254;47.990;-1.608;2022-12-15T05:51:43;18.40;42.40
49379;DHT22;35254;47.990;-1.608;2022-12-15T05:54:11;18.40;42.50
49379;DHT22;35254;47.990;-1.608;2022-12-15T05:56:37;18.40;42.50
49379;DHT22;35254;47.990;-1.608;2022-12-15T05:59:03;18.40;42.70
49379;DHT22;35254;47.990;-1.608;2022-12-15T06:01:30;18.40;42.80
49379;DHT22;35254;47.990;-1.608;2022-12-15T06:03:56;18.30;42.80
49379;DHT22;35254;47.990;-1.608;2022-12-15T06:06:22;18.50;42.50
49379;DHT22;35254;47.990;-1.608;2022-12-15T06:08:48;18.60;42.40
49379;DHT22;35254;47.990;-1.608;2022-12-15T06:11:16;18.60;42.40
49379;DHT22;35254;47.990;-1.608;2022-12-15T06:13:42;18.70;42.30
49379;DHT22;35254;47.990;-1.608;2022-12-15T06:16:18;18.70;42.20
49379;DHT22;35254;47.990;-1.608;2022-12-15T06:18:53;18.70;42.10
49379;DHT22;35254;47.990;-1.608;2022-12-15T06:21:21;18.80;41.90
49379;DHT22;35254;47.990;-1.608;2022-12-15T06:23:50;18.80;41.90
49379;DHT22;35254;47.990;-1.608;2022-12-15T06:26:30;18.80;41.80
49379;DHT22;35254;47.990;-1.608;2022-12-15T06:28:59;18.90;41.70
49379;DHT22;35254;47.990;-1.608;2022-12-15T06:31:27;18.90;41.60
49379;DHT22;35254;47.990;-1.608;2022-12-15T06:33:54;18.90;41.50
49379;DHT22;35254;47.990;-1.608;2022-12-15T06:36:21;18.90;41.30
49379;DHT22;35254;47.990;-1.608;2022-12-15T06:38:49;18.90;41.20
49379;DHT22;35254;47.990;-1.608;2022-12-15T06:41:17;18.90;41.20
49379;DHT22;35254;47.990;-1.608;2022-12-15T06:43:52;18.90;41.10
49379;DHT22;35254;47.990;-1.608;2022-12-15T06:46:18;18.90;41.10
49379;DHT22;35254;47.990;-1.608;2022-12-15T06:48:45;18.90;41.10
49379;DHT22;35254;47.990;-1.608;2022-12-15T06:51:11;18.90;41.00
49379;DHT22;35254;47.990;-1.608;2022-12-15T06:53:38;18.90;41.00
49379;DHT22;35254;47.990;-1.608;2022-12-15T06:56:07;19.00;40.90
49379;DHT22;35254;47.990;-1.608;2022-12-15T06:58:38;18.90;40.90
49379;DHT22;35254;47.990;-1.608;2022-12-15T07:01:07;19.00;41.00
49379;DHT22;35254;47.990;-1.608;2022-12-15T07:03:33;19.00;41.10
49379;DHT22;35254;47.990;-1.608;2022-12-15T07:06:04;19.00;41.20
49379;DHT22;35254;47.990;-1.608;2022-12-15T07:08:31;19.00;41.40
49379;DHT22;35254;47.990;-1.608;2022-12-15T07:10:57;19.00;41.40
49379;DHT22;35254;47.990;-1.608;2022-12-15T07:13:23;19.10;41.30
49379;DHT22;35254;47.990;-1.608;2022-12-15T07:15:48;19.10;41.30
49379;DHT22;35254;47.990;-1.608;2022-12-15T07:18:15;19.10;41.30
49379;DHT22;35254;47.990;-1.608;2022-12-15T07:20:41;19.10;41.30
49379;DHT22;35254;47.990;-1.608;2022-12-15T07:23:07;19.10;41.40
49379;DHT22;35254;47.990;-1.608;2022-12-15T07:25:38;19.10;41.50
49379;DHT22;35254;47.990;-1.608;2022-12-15T07:28:04;19.10;41.20
49379;DHT22;35254;47.990;-1.608;2022-12-15T07:30:30;19.20;41.30
49379;DHT22;35254;47.990;-1.608;2022-12-15T07:32:56;19.10;41.20
49379;DHT22;35254;47.990;-1.608;2022-12-15T07:35:22;19.10;41.30
49379;DHT22;35254;47.990;-1.608;2022-12-15T07:37:48;19.10;41.30
49379;DHT22;35254;47.990;-1.608;2022-12-15T07:40:13;19.10;41.10
49379;DHT22;35254;47.990;-1.608;2022-12-15T07:42:39;19.10;42.20
49379;DHT22;35254;47.990;-1.608;2022-12-15T07:45:05;19.20;44.00
49379;DHT22;35254;47.990;-1.608;2022-12-15T07:47:32;19.10;43.50
49379;DHT22;35254;47.990;-1.608;2022-12-15T07:49:57;19.10;41.30
49379;DHT22;35254;47.990;-1.608;2022-12-15T07:52:23;18.90;39.10
49379;DHT22;35254;47.990;-1.608;2022-12-15T07:54:49;18.80;37.20
49379;DHT22;35254;47.990;-1.608;2022-12-15T07:57:15;18.70;36.30
49379;DHT22;35254;47.990;-1.608;2022-12-15T07:59:42;18.60;35.70
49379;DHT22;35254;47.990;-1.608;2022-12-15T08:02:10;18.60;35.40
49379;DHT22;35254;47.990;-1.608;2022-12-15T08:04:37;18.50;34.90
49379;DHT22;35254;47.990;-1.608;2022-12-15T08:07:03;18.50;34.80
49379;DHT22;35254;47.990;-1.608;2022-12-15T08:09:29;18.40;35.60
49379;DHT22;35254;47.990;-1.608;2022-12-15T08:11:56;18.50;38.20
49379;DHT22;35254;47.990;-1.608;2022-12-15T08:14:22;18.60;38.40
49379;DHT22;35254;47.990;-1.608;2022-12-15T08:16:47;18.60;39.60
49379;DHT22;35254;47.990;-1.608;2022-12-15T08:19:14;18.70;39.80
49379;DHT22;35254;47.990;-1.608;2022-12-15T08:21:41;18.70;39.70
49379;DHT22;35254;47.990;-1.608;2022-12-15T08:24:07;18.70;40.20
49379;DHT22;35254;47.990;-1.608;2022-12-15T08:26:34;18.80;40.70
49379;DHT22;35254;47.990;-1.608;2022-12-15T08:29:01;18.80;41.30
49379;DHT22;35254;47.990;-1.608;2022-12-15T08:31:28;18.80;42.10
49379;DHT22;35254;47.990;-1.608;2022-12-15T08:33:56;18.90;42.50
49379;DHT22;35254;47.990;-1.608;2022-12-15T08:36:22;18.90;42.50
49379;DHT22;35254;47.990;-1.608;2022-12-15T08:38:48;18.90;42.80
49379;DHT22;35254;47.990;-1.608;2022-12-15T08:41:20;19.00;43.00
49379;DHT22;35254;47.990;-1.608;2022-12-15T08:43:48;19.00;43.20
49379;DHT22;35254;47.990;-1.608;2022-12-15T08:46:21;19.00;43.50
49379;DHT22;35254;47.990;-1.608;2022-12-15T08:48:47;19.00;43.90
49379;DHT22;35254;47.990;-1.608;2022-12-15T08:51:13;19.00;44.20
49379;DHT22;35254;47.990;-1.608;2022-12-15T08:53:39;19.00;44.40
49379;DHT22;35254;47.990;-1.608;2022-12-15T08:56:07;19.00;44.80
49379;DHT22;35254;47.990;-1.608;2022-12-15T08:58:33;19.00;45.30
49379;DHT22;35254;47.990;-1.608;2022-12-15T09:01:04;19.00;45.20
49379;DHT22;35254;47.990;-1.608;2022-12-15T09:03:31;19.10;45.60
49379;DHT22;35254;47.990;-1.608;2022-12-15T09:06:04;19.00;45.60
49379;DHT22;35254;47.990;-1.608;2022-12-15T09:08:30;19.00;45.70
49379;DHT22;35254;47.990;-1.608;2022-12-15T09:10:57;19.00;45.50
49379;DHT22;35254;47.990;-1.608;2022-12-15T09:13:23;19.00;45.80
49379;DHT22;35254;47.990;-1.608;2022-12-15T09:16:00;19.00;44.80
49379;DHT22;35254;47.990;-1.608;2022-12-15T09:18:26;19.00;44.60
49379;DHT22;35254;47.990;-1.608;2022-12-15T09:20:53;19.00;44.70
49379;DHT22;35254;47.990;-1.608;2022-12-15T09:23:20;19.00;45.50
49379;DHT22;35254;47.990;-1.608;2022-12-15T09:25:46;19.10;45.30
49379;DHT22;35254;47.990;-1.608;2022-12-15T09:28:12;19.10;45.30
49379;DHT22;35254;47.990;-1.608;2022-12-15T09:30:38;19.10;45.40
49379;DHT22;35254;47.990;-1.608;2022-12-15T09:33:04;19.10;45.50
49379;DHT22;35254;47.990;-1.608;2022-12-15T09:35:30;19.10;45.60
49379;DHT22;35254;47.990;-1.608;2022-12-15T09:37:56;19.10;45.70
49379;DHT22;35254;47.990;-1.608;2022-12-15T09:40:22;19.10;45.60
49379;DHT22;35254;47.990;-1.608;2022-12-15T09:42:54;19.10;46.00
49379;DHT22;35254;47.990;-1.608;2022-12-15T09:45:23;19.10;45.90
49379;DHT22;35254;47.990;-1.608;2022-12-15T09:48:00;19.10;46.30
49379;DHT22;35254;47.990;-1.608;2022-12-15T09:50:33;19.20;46.90
49379;DHT22;35254;47.990;-1.608;2022-12-15T09:53:01;19.10;46.90
49379;DHT22;35254;47.990;-1.608;2022-12-15T09:55:29;19.10;46.60
49379;DHT22;35254;47.990;-1.608;2022-12-15T09:58:02;19.10;46.30
49379;DHT22;35254;47.990;-1.608;2022-12-15T10:01:01;19.10;45.80
49379;DHT22;35254;47.990;-1.608;2022-12-15T10:06:16;19.10;45.40
49379;DHT22;35254;47.990;-1.608;2022-12-15T10:08:49;19.10;45.50
49379;DHT22;35254;47.990;-1.608;2022-12-15T10:16:51;19.20;45.70
49379;DHT22;35254;47.990;-1.608;2022-12-15T10:22:03;19.20;46.40
49379;DHT22;35254;47.990;-1.608;2022-12-15T10:24:30;19.20;46.70
49379;DHT22;35254;47.990;-1.608;2022-12-15T10:30:06;19.30;46.80
49379;DHT22;35254;47.990;-1.608;2022-12-15T10:32:48;19.20;46.80
49379;DHT22;35254;47.990;-1.608;2022-12-15T10:35:23;19.30;46.80
49379;DHT22;35254;47.990;-1.608;2022-12-15T10:37:51;19.40;47.40
49379;DHT22;35254;47.990;-1.608;2022-12-15T10:40:19;19.30;47.30
49379;DHT22;35254;47.990;-1.608;2022-12-15T10:43:53;19.40;48.20
49379;DHT22;35254;47.990;-1.608;2022-12-15T10:48:45;18.90;42.30
49379;DHT22;35254;47.990;-1.608;2022-12-15T10:51:29;19.00;43.70
49379;DHT22;35254;47.990;-1.608;2022-12-15T10:56:30;19.10;42.60
49379;DHT22;35254;47.990;-1.608;2022-12-15T10:58:58;19.10;42.20
49379;DHT22;35254;47.990;-1.608;2022-12-15T11:01:29;19.10;42.40
49379;DHT22;35254;47.990;-1.608;2022-12-15T11:03:55;19.20;42.90
49379;DHT22;35254;47.990;-1.608;2022-12-15T11:06:27;19.20;42.80
49379;DHT22;35254;47.990;-1.608;2022-12-15T11:08:56;19.20;42.70
49379;DHT22;35254;47.990;-1.608;2022-12-15T11:11:33;19.20;42.60
49379;DHT22;35254;47.990;-1.608;2022-12-15T11:14:25;19.20;42.90
49379;DHT22;35254;47.990;-1.608;2022-12-15T11:16:56;19.10;42.80
49379;DHT22;35254;47.990;-1.608;2022-12-15T11:22:04;19.00;41.90
49379;DHT22;35254;47.990;-1.608;2022-12-15T11:25:19;18.90;41.20
49379;DHT22;35254;47.990;-1.608;2022-12-15T11:27:31;18.80;38.90
49379;DHT22;35254;47.990;-1.608;2022-12-15T11:32:37;18.90;39.60
49379;DHT22;35254;47.990;-1.608;2022-12-15T11:35:11;19.00;39.90
49379;DHT22;35254;47.990;-1.608;2022-12-15T11:37:43;19.00;40.10
49379;DHT22;35254;47.990;-1.608;2022-12-15T11:46:17;19.10;41.40
49379;DHT22;35254;47.990;-1.608;2022-12-15T11:51:45;19.10;44.60
49379;DHT22;35254;47.990;-1.608;2022-12-15T12:00:08;19.10;43.90
49379;DHT22;35254;47.990;-1.608;2022-12-15T12:10:51;19.10;44.10
49379;DHT22;35254;47.990;-1.608;2022-12-15T12:18:34;19.20;43.90
49379;DHT22;35254;47.990;-1.608;2022-12-15T12:21:07;19.10;44.10
49379;DHT22;35254;47.990;-1.608;2022-12-15T12:24:10;19.20;44.10
49379;DHT22;35254;47.990;-1.608;2022-12-15T12:27:03;19.20;44.00
49379;DHT22;35254;47.990;-1.608;2022-12-15T12:29:44;19.20;44.00
49379;DHT22;35254;47.990;-1.608;2022-12-15T12:32:17;19.20;44.10
49379;DHT22;35254;47.990;-1.608;2022-12-15T12:35:12;19.20;44.10
49379;DHT22;35254;47.990;-1.608;2022-12-15T12:37:44;19.10;44.20
49379;DHT22;35254;47.990;-1.608;2022-12-15T12:40:34;19.10;44.20
49379;DHT22;35254;47.990;-1.608;2022-12-15T12:43:11;18.90;43.80
49379;DHT22;35254;47.990;-1.608;2022-12-15T12:45:51;18.80;44.10
49379;DHT22;35254;47.990;-1.608;2022-12-15T12:48:34;18.70;43.70
49379;DHT22;35254;47.990;-1.608;2022-12-15T12:51:11;18.70;43.80
49379;DHT22;35254;47.990;-1.608;2022-12-15T12:53:40;18.70;44.00
49379;DHT22;35254;47.990;-1.608;2022-12-15T12:56:10;18.70;44.20
49379;DHT22;35254;47.990;-1.608;2022-12-15T12:58:52;18.80;44.30
49379;DHT22;35254;47.990;-1.608;2022-12-15T13:01:18;18.70;44.40
49379;DHT22;35254;47.990;-1.608;2022-12-15T13:04:09;18.80;44.10
49379;DHT22;35254;47.990;-1.608;2022-12-15T13:11:55;18.80;44.70
49379;DHT22;35254;47.990;-1.608;2022-12-15T13:17:05;19.00;46.60
49379;DHT22;35254;47.990;-1.608;2022-12-15T13:24:57;18.90;43.10
49379;DHT22;35254;47.990;-1.608;2022-12-15T13:27:23;18.80;42.10
49379;DHT22;35254;47.990;-1.608;2022-12-15T13:30:12;18.80;40.90
49379;DHT22;35254;47.990;-1.608;2022-12-15T13:32:45;18.90;41.10
49379;DHT22;35254;47.990;-1.608;2022-12-15T13:37:52;18.90;41.60
49379;DHT22;35254;47.990;-1.608;2022-12-15T13:43:07;18.90;41.70
49379;DHT22;35254;47.990;-1.608;2022-12-15T13:48:19;18.90;42.00
49379;DHT22;35254;47.990;-1.608;2022-12-15T13:50:57;18.90;42.10
49379;DHT22;35254;47.990;-1.608;2022-12-15T13:53:26;18.90;42.30
49379;DHT22;35254;47.990;-1.608;2022-12-15T13:56:02;18.90;42.40
49379;DHT22;35254;47.990;-1.608;2022-12-15T13:58:39;18.80;42.70
49379;DHT22;35254;47.990;-1.608;2022-12-15T14:01:23;18.80;43.20
49379;DHT22;35254;47.990;-1.608;2022-12-15T14:04:19;18.70;42.80
49379;DHT22;35254;47.990;-1.608;2022-12-15T14:06:54;18.70;42.40
49379;DHT22;35254;47.990;-1.608;2022-12-15T14:09:31;18.70;41.90
49379;DHT22;35254;47.990;-1.608;2022-12-15T14:12:00;18.60;41.40
49379;DHT22;35254;47.990;-1.608;2022-12-15T14:14:29;18.50;36.00
49379;DHT22;35254;47.990;-1.608;2022-12-15T14:17:07;18.20;33.00
49379;DHT22;35254;47.990;-1.608;2022-12-15T14:19:47;18.30;38.30
49379;DHT22;35254;47.990;-1.608;2022-12-15T14:24:43;18.60;37.20
49379;DHT22;35254;47.990;-1.608;2022-12-15T14:27:24;18.60;37.80
49379;DHT22;35254;47.990;-1.608;2022-12-15T14:30:11;18.60;38.20
49379;DHT22;35254;47.990;-1.608;2022-12-15T14:32:38;18.60;38.60
49379;DHT22;35254;47.990;-1.608;2022-12-15T14:35:05;18.60;39.10
49379;DHT22;35254;47.990;-1.608;2022-12-15T14:37:36;18.60;39.40
49379;DHT22;35254;47.990;-1.608;2022-12-15T14:40:02;18.60;39.60
49379;DHT22;35254;47.990;-1.608;2022-12-15T14:42:28;18.70;39.80
49379;DHT22;35254;47.990;-1.608;2022-12-15T14:44:55;18.60;40.10
49379;DHT22;35254;47.990;-1.608;2022-12-15T14:47:25;18.70;40.40
49379;DHT22;35254;47.990;-1.608;2022-12-15T14:49:52;18.60;41.00
49379;DHT22;35254;47.990;-1.608;2022-12-15T14:52:38;18.60;41.40
49379;DHT22;35254;47.990;-1.608;2022-12-15T14:55:33;18.60;41.10
49379;DHT22;35254;47.990;-1.608;2022-12-15T14:57:59;18.50;39.10
49379;DHT22;35254;47.990;-1.608;2022-12-15T15:00:46;18.40;38.10
49379;DHT22;35254;47.990;-1.608;2022-12-15T15:05:58;18.40;35.70
49379;DHT22;35254;47.990;-1.608;2022-12-15T15:10:56;18.20;34.00
49379;DHT22;35254;47.990;-1.608;2022-12-15T15:13:24;18.20;34.10
49379;DHT22;35254;47.990;-1.608;2022-12-15T15:15:53;18.30;34.00
49379;DHT22;35254;47.990;-1.608;2022-12-15T15:18:23;18.40;34.20
49379;DHT22;35254;47.990;-1.608;2022-12-15T15:20:55;18.40;34.50
49379;DHT22;35254;47.990;-1.608;2022-12-15T15:23:22;18.40;34.90
49379;DHT22;35254;47.990;-1.608;2022-12-15T15:25:51;18.50;35.30
49379;DHT22;35254;47.990;-1.608;2022-12-15T15:30:45;18.50;36.00
49379;DHT22;35254;47.990;-1.608;2022-12-15T15:33:11;18.50;36.50
49379;DHT22;35254;47.990;-1.608;2022-12-15T15:35:41;18.50;36.70
49379;DHT22;35254;47.990;-1.608;2022-12-15T15:38:37;18.60;36.80
49379;DHT22;35254;47.990;-1.608;2022-12-15T15:41:40;18.50;37.20
49379;DHT22;35254;47.990;-1.608;2022-12-15T15:44:11;18.50;37.50
49379;DHT22;35254;47.990;-1.608;2022-12-15T15:46:44;18.50;37.60
49379;DHT22;35254;47.990;-1.608;2022-12-15T15:49:14;18.50;37.80
49379;DHT22;35254;47.990;-1.608;2022-12-15T15:51:41;18.40;38.00
49379;DHT22;35254;47.990;-1.608;2022-12-15T15:54:11;18.50;38.10
49379;DHT22;35254;47.990;-1.608;2022-12-15T15:56:38;18.50;38.20
49379;DHT22;35254;47.990;-1.608;2022-12-15T15:59:15;18.50;38.40
49379;DHT22;35254;47.990;-1.608;2022-12-15T16:01:47;18.50;38.60
49379;DHT22;35254;47.990;-1.608;2022-12-15T16:04:13;18.50;38.70
49379;DHT22;35254;47.990;-1.608;2022-12-15T16:06:39;18.50;38.80
49379;DHT22;35254;47.990;-1.608;2022-12-15T16:09:05;18.50;38.90
49379;DHT22;35254;47.990;-1.608;2022-12-15T16:11:33;18.50;38.80
49379;DHT22;35254;47.990;-1.608;2022-12-15T16:14:00;18.50;38.90
49379;DHT22;35254;47.990;-1.608;2022-12-15T16:16:30;18.50;39.00
49379;DHT22;35254;47.990;-1.608;2022-12-15T16:18:56;18.50;39.00
49379;DHT22;35254;47.990;-1.608;2022-12-15T16:21:24;18.50;39.00
49379;DHT22;35254;47.990;-1.608;2022-12-15T16:23:51;18.50;39.00
49379;DHT22;35254;47.990;-1.608;2022-12-15T16:26:26;18.40;39.10
49379;DHT22;35254;47.990;-1.608;2022-12-15T16:28:52;18.40;39.00
49379;DHT22;35254;47.990;-1.608;2022-12-15T16:31:32;18.40;39.00
49379;DHT22;35254;47.990;-1.608;2022-12-15T16:34:00;18.40;39.10
49379;DHT22;35254;47.990;-1.608;2022-12-15T16:36:26;18.40;39.30
49379;DHT22;35254;47.990;-1.608;2022-12-15T16:38:52;18.40;39.10
49379;DHT22;35254;47.990;-1.608;2022-12-15T16:41:17;18.40;39.20
49379;DHT22;35254;47.990;-1.608;2022-12-15T16:43:43;18.40;39.20
49379;DHT22;35254;47.990;-1.608;2022-12-15T16:46:12;18.40;39.20
49379;DHT22;35254;47.990;-1.608;2022-12-15T16:48:39;18.40;39.20
49379;DHT22;35254;47.990;-1.608;2022-12-15T16:51:06;18.40;39.30
49379;DHT22;35254;47.990;-1.608;2022-12-15T16:53:36;18.40;39.30
49379;DHT22;35254;47.990;-1.608;2022-12-15T16:56:05;18.40;39.40
49379;DHT22;35254;47.990;-1.608;2022-12-15T16:58:33;18.40;39.40
49379;DHT22;35254;47.990;-1.608;2022-12-15T17:00:59;18.40;39.40
49379;DHT22;35254;47.990;-1.608;2022-12-15T17:03:25;18.40;39.60
49379;DHT22;35254;47.990;-1.608;2022-12-15T17:05:54;18.30;39.60
49379;DHT22;35254;47.990;-1.608;2022-12-15T17:10:54;18.40;39.70
49379;DHT22;35254;47.990;-1.608;2022-12-15T17:15:52;18.40;39.70
49379;DHT22;35254;47.990;-1.608;2022-12-15T17:18:19;18.30;39.70
49379;DHT22;35254;47.990;-1.608;2022-12-15T17:20:45;18.30;39.80
49379;DHT22;35254;47.990;-1.608;2022-12-15T17:23:18;18.30;39.80
49379;DHT22;35254;47.990;-1.608;2022-12-15T17:25:47;18.40;39.60
49379;DHT22;35254;47.990;-1.608;2022-12-15T17:28:21;18.30;39.60
49379;DHT22;35254;47.990;-1.608;2022-12-15T17:30:48;18.40;39.60
49379;DHT22;35254;47.990;-1.608;2022-12-15T17:33:19;18.30;39.60
49379;DHT22;35254;47.990;-1.608;2022-12-15T17:35:51;18.30;39.60
49379;DHT22;35254;47.990;-1.608;2022-12-15T17:38:19;18.30;39.70